sensor_id;sensor_type;location;lat;lon;timestamp;P1;durP1;ratioP1;P2;durP2;ratioP2
22107;SDS011;11220;48.812;9.128;2023-02-25T00:02:11;0.30;;;0.30;;
22107;SDS011;11220;48.812;9.128;2023-02-25T00:04:38;0.40;;;0.40;;
22107;SDS011;11220;48.812;9.128;2023-02-25T00:07:05;0.30;;;0.30;;
22107;SDS011;11220;48.812;9.128;2023-02-25T00:09:32;0.60;;;0.50;;
22107;SDS011;11220;48.812;9.128;2023-02-25T00:11:57;0.40;;;0.40;;
22107;SDS011;11220;48.812;9.128;2023-02-25T00:14:23;0.50;;;0.40;;
22107;SDS011;11220;48.812;9.128;2023-02-25T00:16:49;0.60;;;0.40;;
22107;SDS011;11220;48.812;9.128;2023-02-25T00:19:14;0.40;;;0.40;;
22107;SDS011;11220;48.812;9.128;2023-02-25T00:21:40;0.50;;;0.40;;
22107;SDS011;11220;48.812;9.128;2023-02-25T00:24:05;0.32;;;0.32;;
22107;SDS011;11220;48.812;9.128;2023-02-25T00:26:31;0.57;;;0.40;;
22107;SDS011;11220;48.812;9.128;2023-02-25T00:28:57;0.50;;;0.50;;
22107;SDS011;11220;48.812;9.128;2023-02-25T00:31:23;0.30;;;0.30;;
22107;SDS011;11220;48.812;9.128;2023-02-25T00:33:50;0.65;;;0.35;;
22107;SDS011;11220;48.812;9.128;2023-02-25T00:36:20;0.47;;;0.40;;
22107;SDS011;11220;48.812;9.128;2023-02-25T00:38:52;0.38;;;0.32;;
22107;SDS011;11220;48.812;9.128;2023-02-25T00:41:21;0.65;;;0.30;;
22107;SDS011;11220;48.812;9.128;2023-02-25T00:43:50;0.70;;;0.40;;
22107;SDS011;11220;48.812;9.128;2023-02-25T00:46:18;0.38;;;0.38;;
22107;SDS011;11220;48.812;9.128;2023-02-25T00:48:44;0.50;;;0.30;;
22107;SDS011;11220;48.812;9.128;2023-02-25T00:51:13;0.32;;;0.28;;
22107;SDS011;11220;48.812;9.128;2023-02-25T00:53:40;0.43;;;0.32;;
22107;SDS011;11220;48.812;9.128;2023-02-25T00:56:06;0.20;;;0.20;;
22107;SDS011;11220;48.812;9.128;2023-02-25T00:58:37;0.30;;;0.30;;
22107;SDS011;11220;48.812;9.128;2023-02-25T01:01:04;0.52;;;0.30;;
22107;SDS011;11220;48.812;9.128;2023-02-25T01:03:30;0.20;;;0.20;;
22107;SDS011;11220;48.812;9.128;2023-02-25T01:05:56;0.40;;;0.30;;
22107;SDS011;11220;48.812;9.128;2023-02-25T01:08:22;0.28;;;0.28;;
22107;SDS011;11220;48.812;9.128;2023-02-25T01:10:48;0.30;;;0.30;;
22107;SDS011;11220;48.812;9.128;2023-02-25T01:13:14;0.30;;;0.30;;
22107;SDS011;11220;48.812;9.128;2023-02-25T01:15:40;0.40;;;0.40;;
22107;SDS011;11220;48.812;9.128;2023-02-25T01:18:06;0.30;;;0.30;;
22107;SDS011;11220;48.812;9.128;2023-02-25T01:20:31;0.30;;;0.30;;
22107;SDS011;11220;48.812;9.128;2023-02-25T01:23:00;0.40;;;0.40;;
22107;SDS011;11220;48.812;9.128;2023-02-25T01:25:26;0.45;;;0.35;;
22107;SDS011;11220;48.812;9.128;2023-02-25T01:27:55;0.43;;;0.35;;
22107;SDS011;11220;48.812;9.128;2023-02-25T01:30:21;0.40;;;0.40;;
22107;SDS011;11220;48.812;9.128;2023-02-25T01:32:47;0.20;;;0.20;;
22107;SDS011;11220;48.812;9.128;2023-02-25T01:35:13;0.30;;;0.30;;
22107;SDS011;11220;48.812;9.128;2023-02-25T01:37:38;0.20;;;0.20;;
22107;SDS011;11220;48.812;9.128;2023-02-25T01:40:05;0.52;;;0.30;;
22107;SDS011;11220;48.812;9.128;2023-02-25T01:42:31;0.30;;;0.22;;
22107;SDS011;11220;48.812;9.128;2023-02-25T01:47:41;0.40;;;0.22;;
22107;SDS011;11220;48.812;9.128;2023-02-25T01:50:10;0.20;;;0.20;;
22107;SDS011;11220;48.812;9.128;2023-02-25T01:52:36;0.30;;;0.30;;
22107;SDS011;11220;48.812;9.128;2023-02-25T01:55:04;0.28;;;0.20;;
22107;SDS011;11220;48.812;9.128;2023-02-25T01:57:30;0.35;;;0.30;;
22107;SDS011;11220;48.812;9.128;2023-02-25T01:59:56;0.20;;;0.13;;
22107;SDS011;11220;48.812;9.128;2023-02-25T02:02:22;0.20;;;0.20;;
22107;SDS011;11220;48.812;9.128;2023-02-25T02:04:50;0.40;;;0.22;;
22107;SDS011;11220;48.812;9.128;2023-02-25T02:07:18;0.40;;;0.25;;
22107;SDS011;11220;48.812;9.128;2023-02-25T02:09:44;0.30;;;0.30;;
22107;SDS011;11220;48.812;9.128;2023-02-25T02:12:19;0.38;;;0.22;;
22107;SDS011;11220;48.812;9.128;2023-02-25T02:14:55;0.28;;;0.28;;
22107;SDS011;11220;48.812;9.128;2023-02-25T02:22:43;0.20;;;0.20;;
22107;SDS011;11220;48.812;9.128;2023-02-25T02:31:14;0.20;;;0.20;;
22107;SDS011;11220;48.812;9.128;2023-02-25T02:41:46;0.20;;;0.20;;
22107;SDS011;11220;48.812;9.128;2023-02-25T02:44:27;0.50;;;0.20;;
22107;SDS011;11220;48.812;9.128;2023-02-25T02:46:59;0.25;;;0.25;;
22107;SDS011;11220;48.812;9.128;2023-02-25T02:49:29;0.20;;;0.20;;
22107;SDS011;11220;48.812;9.128;2023-02-25T02:52:05;0.20;;;0.20;;
22107;SDS011;11220;48.812;9.128;2023-02-25T02:54:39;1.17;;;0.28;;
22107;SDS011;11220;48.812;9.128;2023-02-25T02:57:13;0.25;;;0.20;;
22107;SDS011;11220;48.812;9.128;2023-02-25T02:59:42;0.40;;;0.20;;
22107;SDS011;11220;48.812;9.128;2023-02-25T03:02:13;0.65;;;0.28;;
22107;SDS011;11220;48.812;9.128;2023-02-25T03:05:07;0.20;;;0.20;;
22107;SDS011;11220;48.812;9.128;2023-02-25T03:07:37;0.20;;;0.17;;
22107;SDS011;11220;48.812;9.128;2023-02-25T03:10:07;0.30;;;0.30;;
22107;SDS011;11220;48.812;9.128;2023-02-25T03:12:37;0.32;;;0.20;;
22107;SDS011;11220;48.812;9.128;2023-02-25T03:15:03;0.55;;;0.25;;
22107;SDS011;11220;48.812;9.128;2023-02-25T03:17:30;0.20;;;0.10;;
22107;SDS011;11220;48.812;9.128;2023-02-25T03:20:11;0.35;;;0.30;;
22107;SDS011;11220;48.812;9.128;2023-02-25T03:22:45;0.25;;;0.25;;
22107;SDS011;11220;48.812;9.128;2023-02-25T03:25:20;0.20;;;0.10;;
22107;SDS011;11220;48.812;9.128;2023-02-25T03:28:02;0.20;;;0.20;;
22107;SDS011;11220;48.812;9.128;2023-02-25T03:35:58;0.20;;;0.20;;
22107;SDS011;11220;48.812;9.128;2023-02-25T03:38:27;0.23;;;0.20;;
22107;SDS011;11220;48.812;9.128;2023-02-25T03:40:58;0.20;;;0.20;;
22107;SDS011;11220;48.812;9.128;2023-02-25T03:43:28;0.17;;;0.10;;
22107;SDS011;11220;48.812;9.128;2023-02-25T03:45:57;0.35;;;0.28;;
22107;SDS011;11220;48.812;9.128;2023-02-25T03:48:24;0.10;;;0.10;;
22107;SDS011;11220;48.812;9.128;2023-02-25T03:50:55;0.20;;;0.10;;
22107;SDS011;11220;48.812;9.128;2023-02-25T03:53:28;0.45;;;0.28;;
22107;SDS011;11220;48.812;9.128;2023-02-25T03:55:55;0.30;;;0.20;;
22107;SDS011;11220;48.812;9.128;2023-02-25T03:58:29;0.10;;;0.10;;
22107;SDS011;11220;48.812;9.128;2023-02-25T04:00:59;0.10;;;0.10;;
22107;SDS011;11220;48.812;9.128;2023-02-25T04:03:27;0.10;;;0.10;;
22107;SDS011;11220;48.812;9.128;2023-02-25T04:05:53;0.10;;;0.10;;
22107;SDS011;11220;48.812;9.128;2023-02-25T04:08:18;0.57;;;0.20;;
22107;SDS011;11220;48.812;9.128;2023-02-25T04:10:44;0.85;;;0.40;;
22107;SDS011;11220;48.812;9.128;2023-02-25T04:13:12;0.15;;;0.15;;
22107;SDS011;11220;48.812;9.128;2023-02-25T04:15:39;0.10;;;0.10;;
22107;SDS011;11220;48.812;9.128;2023-02-25T04:18:05;0.32;;;0.17;;
22107;SDS011;11220;48.812;9.128;2023-02-25T04:20:31;0.10;;;0.10;;
22107;SDS011;11220;48.812;9.128;2023-02-25T04:22:57;0.20;;;0.00;;
22107;SDS011;11220;48.812;9.128;2023-02-25T04:25:23;0.17;;;0.10;;
22107;SDS011;11220;48.812;9.128;2023-02-25T04:27:49;0.30;;;0.08;;
22107;SDS011;11220;48.812;9.128;2023-02-25T04:30:15;0.22;;;0.10;;
22107;SDS011;11220;48.812;9.128;2023-02-25T04:32:40;0.10;;;0.10;;
22107;SDS011;11220;48.812;9.128;2023-02-25T04:35:06;0.10;;;0.10;;
22107;SDS011;11220;48.812;9.128;2023-02-25T04:37:38;0.10;;;0.10;;
22107;SDS011;11220;48.812;9.128;2023-02-25T04:40:05;0.25;;;0.10;;
22107;SDS011;11220;48.812;9.128;2023-02-25T04:42:37;0.22;;;0.22;;
22107;SDS011;11220;48.812;9.128;2023-02-25T04:45:04;0.32;;;0.10;;
22107;SDS011;11220;48.812;9.128;2023-02-25T04:47:31;0.52;;;0.17;;
22107;SDS011;11220;48.812;9.128;2023-02-25T04:49:57;0.20;;;0.10;;
22107;SDS011;11220;48.812;9.128;2023-02-25T04:52:23;0.08;;;0.03;;
22107;SDS011;11220;48.812;9.128;2023-02-25T04:54:48;0.38;;;0.20;;
22107;SDS011;11220;48.812;9.128;2023-02-25T04:57:14;0.17;;;0.10;;
22107;SDS011;11220;48.812;9.128;2023-02-25T04:59:39;0.15;;;0.10;;
22107;SDS011;11220;48.812;9.128;2023-02-25T05:02:06;0.20;;;0.10;;
22107;SDS011;11220;48.812;9.128;2023-02-25T05:04:32;0.10;;;0.10;;
22107;SDS011;11220;48.812;9.128;2023-02-25T05:06:58;0.10;;;0.10;;
22107;SDS011;11220;48.812;9.128;2023-02-25T05:09:24;0.10;;;0.10;;
22107;SDS011;11220;48.812;9.128;2023-02-25T05:11:50;0.30;;;0.10;;
22107;SDS011;11220;48.812;9.128;2023-02-25T05:14:16;0.15;;;0.10;;
22107;SDS011;11220;48.812;9.128;2023-02-25T05:16:41;0.10;;;0.10;;
22107;SDS011;11220;48.812;9.128;2023-02-25T05:19:07;0.98;;;0.10;;
22107;SDS011;11220;48.812;9.128;2023-02-25T05:21:32;0.38;;;0.22;;
22107;SDS011;11220;48.812;9.128;2023-02-25T05:23:58;0.20;;;0.10;;
22107;SDS011;11220;48.812;9.128;2023-02-25T05:26:24;0.00;;;0.00;;
22107;SDS011;11220;48.812;9.128;2023-02-25T05:28:51;0.10;;;0.10;;
22107;SDS011;11220;48.812;9.128;2023-02-25T05:31:18;0.10;;;0.10;;
22107;SDS011;11220;48.812;9.128;2023-02-25T05:33:43;0.10;;;0.10;;
22107;SDS011;11220;48.812;9.128;2023-02-25T05:36:11;0.45;;;0.20;;
22107;SDS011;11220;48.812;9.128;2023-02-25T05:38:38;0.03;;;0.00;;
22107;SDS011;11220;48.812;9.128;2023-02-25T05:41:04;0.08;;;0.08;;
22107;SDS011;11220;48.812;9.128;2023-02-25T05:43:30;0.10;;;0.05;;
22107;SDS011;11220;48.812;9.128;2023-02-25T05:45:57;0.00;;;0.00;;
22107;SDS011;11220;48.812;9.128;2023-02-25T05:48:24;0.15;;;0.10;;
22107;SDS011;11220;48.812;9.128;2023-02-25T05:50:50;0.10;;;0.10;;
22107;SDS011;11220;48.812;9.128;2023-02-25T05:53:17;0.20;;;0.10;;
22107;SDS011;11220;48.812;9.128;2023-02-25T05:55:43;0.10;;;0.10;;
22107;SDS011;11220;48.812;9.128;2023-02-25T05:58:09;0.25;;;0.10;;
22107;SDS011;11220;48.812;9.128;2023-02-25T06:00:35;0.10;;;0.10;;
22107;SDS011;11220;48.812;9.128;2023-02-25T06:03:01;0.10;;;0.00;;
22107;SDS011;11220;48.812;9.128;2023-02-25T06:05:27;0.10;;;0.10;;
22107;SDS011;11220;48.812;9.128;2023-02-25T06:07:54;0.10;;;0.10;;
22107;SDS011;11220;48.812;9.128;2023-02-25T06:10:21;0.10;;;0.10;;
22107;SDS011;11220;48.812;9.128;2023-02-25T06:12:47;0.20;;;0.10;;
22107;SDS011;11220;48.812;9.128;2023-02-25T06:15:13;0.00;;;0.00;;
22107;SDS011;11220;48.812;9.128;2023-02-25T06:17:38;0.10;;;0.10;;
22107;SDS011;11220;48.812;9.128;2023-02-25T06:20:04;0.10;;;0.05;;
22107;SDS011;11220;48.812;9.128;2023-02-25T06:22:30;0.10;;;0.10;;
22107;SDS011;11220;48.812;9.128;2023-02-25T06:24:56;0.10;;;0.00;;
22107;SDS011;11220;48.812;9.128;2023-02-25T06:27:21;0.08;;;0.05;;
22107;SDS011;11220;48.812;9.128;2023-02-25T06:29:47;0.10;;;0.10;;
22107;SDS011;11220;48.812;9.128;2023-02-25T06:32:13;0.20;;;0.08;;
22107;SDS011;11220;48.812;9.128;2023-02-25T06:34:39;0.30;;;0.00;;
22107;SDS011;11220;48.812;9.128;2023-02-25T06:37:05;0.45;;;0.10;;
22107;SDS011;11220;48.812;9.128;2023-02-25T06:39:31;0.00;;;0.00;;
22107;SDS011;11220;48.812;9.128;2023-02-25T06:41:56;0.05;;;0.00;;
22107;SDS011;11220;48.812;9.128;2023-02-25T06:44:22;0.10;;;0.10;;
22107;SDS011;11220;48.812;9.128;2023-02-25T06:46:51;0.10;;;0.00;;
22107;SDS011;11220;48.812;9.128;2023-02-25T06:49:19;0.08;;;0.00;;
22107;SDS011;11220;48.812;9.128;2023-02-25T06:51:46;0.10;;;0.10;;
22107;SDS011;11220;48.812;9.128;2023-02-25T06:54:13;0.10;;;0.10;;
22107;SDS011;11220;48.812;9.128;2023-02-25T06:56:42;0.20;;;0.10;;
22107;SDS011;11220;48.812;9.128;2023-02-25T06:59:11;0.10;;;0.10;;
22107;SDS011;11220;48.812;9.128;2023-02-25T07:01:36;0.17;;;0.03;;
22107;SDS011;11220;48.812;9.128;2023-02-25T07:04:02;0.10;;;0.05;;
22107;SDS011;11220;48.812;9.128;2023-02-25T07:06:29;0.20;;;0.00;;
22107;SDS011;11220;48.812;9.128;2023-02-25T07:08:54;0.10;;;0.08;;
22107;SDS011;11220;48.812;9.128;2023-02-25T07:13:52;0.10;;;0.00;;
22107;SDS011;11220;48.812;9.128;2023-02-25T07:16:18;0.10;;;0.10;;
22107;SDS011;11220;48.812;9.128;2023-02-25T07:18:44;0.10;;;0.03;;
22107;SDS011;11220;48.812;9.128;2023-02-25T07:21:10;0.00;;;0.00;;
22107;SDS011;11220;48.812;9.128;2023-02-25T07:23:37;0.05;;;0.00;;
22107;SDS011;11220;48.812;9.128;2023-02-25T07:26:03;0.20;;;0.10;;
22107;SDS011;11220;48.812;9.128;2023-02-25T07:28:29;0.00;;;0.00;;
22107;SDS011;11220;48.812;9.128;2023-02-25T07:30:55;0.10;;;0.10;;
22107;SDS011;11220;48.812;9.128;2023-02-25T07:33:23;0.00;;;0.00;;
22107;SDS011;11220;48.812;9.128;2023-02-25T07:35:52;0.10;;;0.10;;
22107;SDS011;11220;48.812;9.128;2023-02-25T07:38:18;0.10;;;0.10;;
22107;SDS011;11220;48.812;9.128;2023-02-25T07:40:43;0.10;;;0.10;;
22107;SDS011;11220;48.812;9.128;2023-02-25T07:43:09;0.17;;;0.10;;
22107;SDS011;11220;48.812;9.128;2023-02-25T07:45:34;0.10;;;0.10;;
22107;SDS011;11220;48.812;9.128;2023-02-25T07:48:00;0.00;;;0.00;;
22107;SDS011;11220;48.812;9.128;2023-02-25T07:50:25;0.10;;;0.03;;
22107;SDS011;11220;48.812;9.128;2023-02-25T07:52:51;0.10;;;0.08;;
22107;SDS011;11220;48.812;9.128;2023-02-25T07:55:17;0.10;;;0.10;;
22107;SDS011;11220;48.812;9.128;2023-02-25T07:57:42;0.20;;;0.08;;
22107;SDS011;11220;48.812;9.128;2023-02-25T08:00:08;0.03;;;0.03;;
22107;SDS011;11220;48.812;9.128;2023-02-25T08:02:35;0.17;;;0.10;;
22107;SDS011;11220;48.812;9.128;2023-02-25T08:05:01;0.10;;;0.10;;
22107;SDS011;11220;48.812;9.128;2023-02-25T08:07:30;0.10;;;0.10;;
22107;SDS011;11220;48.812;9.128;2023-02-25T08:09:55;0.10;;;0.10;;
22107;SDS011;11220;48.812;9.128;2023-02-25T08:12:21;0.10;;;0.00;;
22107;SDS011;11220;48.812;9.128;2023-02-25T08:14:47;0.00;;;0.00;;
22107;SDS011;11220;48.812;9.128;2023-02-25T08:17:12;0.00;;;0.00;;
22107;SDS011;11220;48.812;9.128;2023-02-25T08:19:38;0.30;;;0.00;;
22107;SDS011;11220;48.812;9.128;2023-02-25T08:22:04;0.05;;;0.05;;
22107;SDS011;11220;48.812;9.128;2023-02-25T08:24:30;0.00;;;0.00;;
22107;SDS011;11220;48.812;9.128;2023-02-25T08:26:56;0.00;;;0.00;;
22107;SDS011;11220;48.812;9.128;2023-02-25T08:29:22;0.15;;;0.00;;
22107;SDS011;11220;48.812;9.128;2023-02-25T08:31:48;0.00;;;0.00;;
22107;SDS011;11220;48.812;9.128;2023-02-25T08:34:15;0.10;;;0.10;;
22107;SDS011;11220;48.812;9.128;2023-02-25T08:36:41;0.10;;;0.00;;
22107;SDS011;11220;48.812;9.128;2023-02-25T08:39:08;0.10;;;0.00;;
22107;SDS011;11220;48.812;9.128;2023-02-25T08:41:34;0.10;;;0.00;;
22107;SDS011;11220;48.812;9.128;2023-02-25T08:44:00;0.05;;;0.05;;
22107;SDS011;11220;48.812;9.128;2023-02-25T08:46:27;0.00;;;0.00;;
22107;SDS011;11220;48.812;9.128;2023-02-25T08:48:54;0.00;;;0.00;;
22107;SDS011;11220;48.812;9.128;2023-02-25T08:51:20;0.08;;;0.08;;
22107;SDS011;11220;48.812;9.128;2023-02-25T08:53:48;0.10;;;0.00;;
22107;SDS011;11220;48.812;9.128;2023-02-25T08:56:14;0.17;;;0.10;;
22107;SDS011;11220;48.812;9.128;2023-02-25T08:58:40;0.08;;;0.08;;
22107;SDS011;11220;48.812;9.128;2023-02-25T09:01:10;0.65;;;0.10;;
22107;SDS011;11220;48.812;9.128;2023-02-25T09:03:38;0.15;;;0.10;;
22107;SDS011;11220;48.812;9.128;2023-02-25T09:06:22;0.32;;;0.10;;
22107;SDS011;11220;48.812;9.128;2023-02-25T09:08:50;0.08;;;0.08;;
22107;SDS011;11220;48.812;9.128;2023-02-25T09:11:17;0.20;;;0.10;;
22107;SDS011;11220;48.812;9.128;2023-02-25T09:13:43;0.17;;;0.08;;
22107;SDS011;11220;48.812;9.128;2023-02-25T09:16:08;0.20;;;0.10;;
22107;SDS011;11220;48.812;9.128;2023-02-25T09:18:34;0.10;;;0.08;;
22107;SDS011;11220;48.812;9.128;2023-02-25T09:21:00;0.03;;;0.00;;
22107;SDS011;11220;48.812;9.128;2023-02-25T09:23:25;0.05;;;0.05;;
22107;SDS011;11220;48.812;9.128;2023-02-25T09:25:51;0.20;;;0.20;;
22107;SDS011;11220;48.812;9.128;2023-02-25T09:28:16;0.17;;;0.10;;
22107;SDS011;11220;48.812;9.128;2023-02-25T09:30:45;0.10;;;0.08;;
22107;SDS011;11220;48.812;9.128;2023-02-25T09:33:11;0.10;;;0.10;;
22107;SDS011;11220;48.812;9.128;2023-02-25T09:35:37;0.10;;;0.00;;
22107;SDS011;11220;48.812;9.128;2023-02-25T09:38:02;0.10;;;0.00;;
22107;SDS011;11220;48.812;9.128;2023-02-25T09:40:28;0.10;;;0.05;;
22107;SDS011;11220;48.812;9.128;2023-02-25T09:45:44;0.00;;;0.00;;
22107;SDS011;11220;48.812;9.128;2023-02-25T09:48:22;0.00;;;0.00;;
22107;SDS011;11220;48.812;9.128;2023-02-25T09:51:01;0.05;;;0.00;;
22107;SDS011;11220;48.812;9.128;2023-02-25T09:53:35;0.10;;;0.10;;
22107;SDS011;11220;48.812;9.128;2023-02-25T09:56:05;0.00;;;0.00;;
22107;SDS011;11220;48.812;9.128;2023-02-25T09:58:34;0.20;;;0.10;;
22107;SDS011;11220;48.812;9.128;2023-02-25T10:01:13;0.20;;;0.05;;
22107;SDS011;11220;48.812;9.128;2023-02-25T10:04:00;0.00;;;0.00;;
22107;SDS011;11220;48.812;9.128;2023-02-25T10:06:37;0.10;;;0.08;;
22107;SDS011;11220;48.812;9.128;2023-02-25T10:12:03;0.22;;;0.10;;
22107;SDS011;11220;48.812;9.128;2023-02-25T10:23:01;0.10;;;0.10;;
22107;SDS011;11220;48.812;9.128;2023-02-25T10:25:37;0.10;;;0.10;;
22107;SDS011;11220;48.812;9.128;2023-02-25T10:28:11;0.10;;;0.10;;
22107;SDS011;11220;48.812;9.128;2023-02-25T10:30:47;0.10;;;0.10;;
22107;SDS011;11220;48.812;9.128;2023-02-25T10:33:21;0.00;;;0.00;;
22107;SDS011;11220;48.812;9.128;2023-02-25T10:35:50;0.10;;;0.10;;
22107;SDS011;11220;48.812;9.128;2023-02-25T10:38:21;0.00;;;0.00;;
22107;SDS011;11220;48.812;9.128;2023-02-25T10:40:46;0.05;;;0.03;;
22107;SDS011;11220;48.812;9.128;2023-02-25T10:43:22;0.00;;;0.00;;
22107;SDS011;11220;48.812;9.128;2023-02-25T10:45:51;0.15;;;0.10;;
22107;SDS011;11220;48.812;9.128;2023-02-25T10:48:24;0.38;;;0.10;;
22107;SDS011;11220;48.812;9.128;2023-02-25T10:53:36;0.20;;;0.10;;
22107;SDS011;11220;48.812;9.128;2023-02-25T10:56:02;0.85;;;0.00;;
22107;SDS011;11220;48.812;9.128;2023-02-25T11:03:58;0.00;;;0.00;;
22107;SDS011;11220;48.812;9.128;2023-02-25T11:06:27;0.05;;;0.00;;
22107;SDS011;11220;48.812;9.128;2023-02-25T11:08:54;0.17;;;0.05;;
22107;SDS011;11220;48.812;9.128;2023-02-25T11:11:29;0.30;;;0.05;;
22107;SDS011;11220;48.812;9.128;2023-02-25T11:14:04;0.20;;;0.05;;
22107;SDS011;11220;48.812;9.128;2023-02-25T11:16:33;0.00;;;0.00;;
22107;SDS011;11220;48.812;9.128;2023-02-25T11:21:36;0.00;;;0.00;;
22107;SDS011;11220;48.812;9.128;2023-02-25T11:24:04;0.40;;;0.05;;
22107;SDS011;11220;48.812;9.128;2023-02-25T11:26:44;0.00;;;0.00;;
22107;SDS011;11220;48.812;9.128;2023-02-25T11:29:16;0.10;;;0.10;;
22107;SDS011;11220;48.812;9.128;2023-02-25T11:31:58;0.00;;;0.00;;
22107;SDS011;11220;48.812;9.128;2023-02-25T11:40:12;0.10;;;0.10;;
22107;SDS011;11220;48.812;9.128;2023-02-25T11:42:47;0.98;;;0.00;;
22107;SDS011;11220;48.812;9.128;2023-02-25T11:45:28;0.00;;;0.00;;
22107;SDS011;11220;48.812;9.128;2023-02-25T11:47:55;0.00;;;0.00;;
22107;SDS011;11220;48.812;9.128;2023-02-25T11:50:29;0.00;;;0.00;;
22107;SDS011;11220;48.812;9.128;2023-02-25T11:53:27;0.10;;;0.00;;
22107;SDS011;11220;48.812;9.128;2023-02-25T12:01:36;0.10;;;0.00;;
22107;SDS011;11220;48.812;9.128;2023-02-25T12:21:01;0.10;;;0.00;;
22107;SDS011;11220;48.812;9.128;2023-02-25T12:26:57;0.00;;;0.00;;
22107;SDS011;11220;48.812;9.128;2023-02-25T12:35:24;0.10;;;0.08;;
22107;SDS011;11220;48.812;9.128;2023-02-25T12:43:49;0.10;;;0.10;;
22107;SDS011;11220;48.812;9.128;2023-02-25T12:46:39;0.10;;;0.00;;
22107;SDS011;11220;48.812;9.128;2023-02-25T12:55:00;0.00;;;0.00;;
22107;SDS011;11220;48.812;9.128;2023-02-25T13:03:31;0.45;;;0.10;;
22107;SDS011;11220;48.812;9.128;2023-02-25T13:06:06;0.28;;;0.10;;
22107;SDS011;11220;48.812;9.128;2023-02-25T13:08:59;0.50;;;0.10;;
22107;SDS011;11220;48.812;9.128;2023-02-25T13:11:55;0.30;;;0.10;;
22107;SDS011;11220;48.812;9.128;2023-02-25T13:23:23;0.00;;;0.00;;
22107;SDS011;11220;48.812;9.128;2023-02-25T13:39:39;0.28;;;0.15;;
22107;SDS011;11220;48.812;9.128;2023-02-25T13:48:10;0.10;;;0.10;;
22107;SDS011;11220;48.812;9.128;2023-02-25T13:53:35;0.10;;;0.10;;
22107;SDS011;11220;48.812;9.128;2023-02-25T13:59:21;0.17;;;0.10;;
22107;SDS011;11220;48.812;9.128;2023-02-25T14:04:38;0.30;;;0.10;;
22107;SDS011;11220;48.812;9.128;2023-02-25T14:10:20;0.22;;;0.10;;
22107;SDS011;11220;48.812;9.128;2023-02-25T14:16:04;0.30;;;0.15;;
22107;SDS011;11220;48.812;9.128;2023-02-25T14:18:41;0.17;;;0.10;;
22107;SDS011;11220;48.812;9.128;2023-02-25T14:24:33;0.10;;;0.10;;
22107;SDS011;11220;48.812;9.128;2023-02-25T14:29:57;0.10;;;0.10;;
22107;SDS011;11220;48.812;9.128;2023-02-25T14:33:49;0.15;;;0.10;;
22107;SDS011;11220;48.812;9.128;2023-02-25T14:35:54;0.10;;;0.00;;
22107;SDS011;11220;48.812;9.128;2023-02-25T14:38:36;0.00;;;0.00;;
22107;SDS011;11220;48.812;9.128;2023-02-25T14:41:34;0.10;;;0.10;;
22107;SDS011;11220;48.812;9.128;2023-02-25T14:44:30;0.10;;;0.00;;
22107;SDS011;11220;48.812;9.128;2023-02-25T14:47:49;0.00;;;0.00;;
22107;SDS011;11220;48.812;9.128;2023-02-25T14:55:23;0.05;;;0.05;;
22107;SDS011;11220;48.812;9.128;2023-02-25T15:03:35;0.00;;;0.00;;
22107;SDS011;11220;48.812;9.128;2023-02-25T15:12:00;0.22;;;0.10;;
22107;SDS011;11220;48.812;9.128;2023-02-25T15:17:48;0.10;;;0.10;;
22107;SDS011;11220;48.812;9.128;2023-02-25T15:20:24;0.10;;;0.10;;
22107;SDS011;11220;48.812;9.128;2023-02-25T15:22:51;0.10;;;0.10;;
22107;SDS011;11220;48.812;9.128;2023-02-25T15:25:33;0.35;;;0.10;;
22107;SDS011;11220;48.812;9.128;2023-02-25T15:28:02;0.10;;;0.08;;
22107;SDS011;11220;48.812;9.128;2023-02-25T15:33:23;0.68;;;0.10;;
22107;SDS011;11220;48.812;9.128;2023-02-25T15:35:58;0.20;;;0.20;;
22107;SDS011;11220;48.812;9.128;2023-02-25T15:38:42;0.28;;;0.10;;
22107;SDS011;11220;48.812;9.128;2023-02-25T15:43:53;0.17;;;0.10;;
22107;SDS011;11220;48.812;9.128;2023-02-25T15:49:01;0.10;;;0.10;;
22107;SDS011;11220;48.812;9.128;2023-02-25T15:52:13;0.40;;;0.20;;
22107;SDS011;11220;48.812;9.128;2023-02-25T15:56:57;0.25;;;0.10;;
22107;SDS011;11220;48.812;9.128;2023-02-25T15:59:38;1.00;;;0.20;;
22107;SDS011;11220;48.812;9.128;2023-02-25T16:04:51;0.50;;;0.10;;
22107;SDS011;11220;48.812;9.128;2023-02-25T16:07:39;0.10;;;0.10;;
22107;SDS011;11220;48.812;9.128;2023-02-25T16:12:40;0.43;;;0.10;;
22107;SDS011;11220;48.812;9.128;2023-02-25T16:15:11;0.40;;;0.20;;
22107;SDS011;11220;48.812;9.128;2023-02-25T16:17:44;0.20;;;0.20;;
22107;SDS011;11220;48.812;9.128;2023-02-25T16:20:16;0.10;;;0.10;;
22107;SDS011;11220;48.812;9.128;2023-02-25T16:22:47;0.50;;;0.20;;
22107;SDS011;11220;48.812;9.128;2023-02-25T16:25:20;0.40;;;0.20;;
22107;SDS011;11220;48.812;9.128;2023-02-25T16:28:03;0.77;;;0.20;;
22107;SDS011;11220;48.812;9.128;2023-02-25T16:30:43;0.30;;;0.17;;
22107;SDS011;11220;48.812;9.128;2023-02-25T16:33:23;0.52;;;0.20;;
22107;SDS011;11220;48.812;9.128;2023-02-25T16:36:15;0.50;;;0.20;;
22107;SDS011;11220;48.812;9.128;2023-02-25T16:39:08;0.73;;;0.20;;
22107;SDS011;11220;48.812;9.128;2023-02-25T16:41:43;0.38;;;0.17;;
22107;SDS011;11220;48.812;9.128;2023-02-25T16:44:09;0.55;;;0.30;;
22107;SDS011;11220;48.812;9.128;2023-02-25T16:46:43;0.30;;;0.20;;
22107;SDS011;11220;48.812;9.128;2023-02-25T16:49:23;0.20;;;0.13;;
22107;SDS011;11220;48.812;9.128;2023-02-25T16:51:53;0.25;;;0.17;;
22107;SDS011;11220;48.812;9.128;2023-02-25T16:54:21;0.10;;;0.10;;
22107;SDS011;11220;48.812;9.128;2023-02-25T16:56:52;0.30;;;0.20;;
22107;SDS011;11220;48.812;9.128;2023-02-25T16:59:22;0.17;;;0.10;;
22107;SDS011;11220;48.812;9.128;2023-02-25T17:01:55;0.40;;;0.20;;
22107;SDS011;11220;48.812;9.128;2023-02-25T17:04:40;0.40;;;0.20;;
22107;SDS011;11220;48.812;9.128;2023-02-25T17:07:17;0.47;;;0.25;;
22107;SDS011;11220;48.812;9.128;2023-02-25T17:09:44;0.20;;;0.20;;
22107;SDS011;11220;48.812;9.128;2023-02-25T17:12:16;0.28;;;0.20;;
22107;SDS011;11220;48.812;9.128;2023-02-25T17:14:55;0.30;;;0.22;;
22107;SDS011;11220;48.812;9.128;2023-02-25T17:17:27;0.17;;;0.10;;
22107;SDS011;11220;48.812;9.128;2023-02-25T17:19:57;0.28;;;0.20;;
22107;SDS011;11220;48.812;9.128;2023-02-25T17:22:25;0.85;;;0.30;;
22107;SDS011;11220;48.812;9.128;2023-02-25T17:24:51;0.10;;;0.10;;
22107;SDS011;11220;48.812;9.128;2023-02-25T17:27:19;0.40;;;0.10;;
22107;SDS011;11220;48.812;9.128;2023-02-25T17:29:47;0.30;;;0.17;;
22107;SDS011;11220;48.812;9.128;2023-02-25T17:32:23;0.20;;;0.20;;
22107;SDS011;11220;48.812;9.128;2023-02-25T17:34:52;0.10;;;0.10;;
22107;SDS011;11220;48.812;9.128;2023-02-25T17:37:20;0.43;;;0.13;;
22107;SDS011;11220;48.812;9.128;2023-02-25T17:39:47;0.20;;;0.10;;
22107;SDS011;11220;48.812;9.128;2023-02-25T17:44:59;0.40;;;0.20;;
22107;SDS011;11220;48.812;9.128;2023-02-25T17:47:27;0.20;;;0.15;;
22107;SDS011;11220;48.812;9.128;2023-02-25T17:49:55;0.50;;;0.30;;
22107;SDS011;11220;48.812;9.128;2023-02-25T17:52:27;0.20;;;0.20;;
22107;SDS011;11220;48.812;9.128;2023-02-25T17:54:56;0.65;;;0.10;;
22107;SDS011;11220;48.812;9.128;2023-02-25T17:57:25;0.38;;;0.20;;
22107;SDS011;11220;48.812;9.128;2023-02-25T18:07:38;0.43;;;0.30;;
22107;SDS011;11220;48.812;9.128;2023-02-25T18:10:09;0.10;;;0.10;;
22107;SDS011;11220;48.812;9.128;2023-02-25T18:12:55;0.25;;;0.10;;
22107;SDS011;11220;48.812;9.128;2023-02-25T18:15:31;0.20;;;0.20;;
22107;SDS011;11220;48.812;9.128;2023-02-25T18:18:02;0.45;;;0.22;;
22107;SDS011;11220;48.812;9.128;2023-02-25T18:23:03;0.20;;;0.20;;
22107;SDS011;11220;48.812;9.128;2023-02-25T18:25:41;0.90;;;0.30;;
22107;SDS011;11220;48.812;9.128;2023-02-25T18:28:18;1.10;;;0.30;;
22107;SDS011;11220;48.812;9.128;2023-02-25T18:30:47;0.30;;;0.30;;
22107;SDS011;11220;48.812;9.128;2023-02-25T18:33:14;0.73;;;0.20;;
22107;SDS011;11220;48.812;9.128;2023-02-25T18:35:42;0.40;;;0.20;;